KMFE/MFE METAR and TAF weather

Enter ICAO airport designator
Station Type Date Time Source
KMFE METAR 2021/04/17 01:53 UTC NOAA

KMFE 170153Z 10012KT 9SM OVC040 28/22 A2967 RMK AO2 SLP044 T02830217


Station Type Date Time Source
KMFE Decoded METAR 2021/04/17 01:53 UTC NOAA

MCALLEN MILLER INTERNATIONAL AIRPORT , TX, United States (KMFE) 26-11N 98-15W 38M
Apr 16, 2021 - 09:53 PM EDT / 2021.04.17 0153 UTC
Wind: from the E (100 degrees) at 14 MPH (12 KT):0
Visibility: 9 mile(s):0
Sky conditions: overcast
Temperature: 82.9 F (28.3 C)
Dew Point: 71.1 F (21.7 C)
Relative Humidity: 67%
Pressure (altimeter): 29.67 in. Hg (1004 hPa)
ob: KMFE 170153Z 10012KT 9SM OVC040 28/22 A2967 RMK AO2 SLP044 T02830217
cycle: 2

Station Type Date Time Source
KMFE TAF 2021/04/17 00:06 UTC NOAA

TAF
AMD KMFE 170005Z 1700/1724 07012KT P6SM SKC
FM170500 10006KT P6SM BKN016
FM170600 08006KT P6SM OVC008 PROB30 1709/1710 4SM TSRA OVC004CB
FM171000 02010G22KT P6SM OVC007 PROB30 1710/1712 4SM TSRA OVC004CB
FM171400 36013G25KT 5SM SHRA VCTS OVC007CB
FM171800 34014G23KT 5SM -SHRA OVC010

Example: see airport list